Terminal Aerodrome Forecast
Issued by NWS Wakefield, VA

Home | Current Version | Previous Version | Text Only | Print | Product List | Glossary On
Versions: 1 2 3 4 5 6 7 8 9 10 11 12 13 14 15 16
000
FTUS41 KAKQ 300500
TAFRIC
TAF
KRIC 300540Z 3006/3106 22009KT P6SM OVC060
     FM301100 29011KT P6SM BKN050
     FM301400 32016G26KT P6SM BKN040
     FM301900 31021G30KT P6SM SCT050
     FM302300 31014G22KT P6SM SKC=

USA.gov is the U.S. government's official web portal to all federal, state and local government web resources and services.